sensor_id;sensor_type;location;lat;lon;timestamp;P1;durP1;ratioP1;P2;durP2;ratioP2
1140;SDS011;559;48.628;8.924;2023-10-19T00:00:52;157.65;;;149.05;;
1140;SDS011;559;48.628;8.924;2023-10-19T00:03:20;157.40;;;148.65;;
1140;SDS011;559;48.628;8.924;2023-10-19T00:05:48;168.38;;;159.30;;
1140;SDS011;559;48.628;8.924;2023-10-19T00:08:14;166.40;;;157.20;;
1140;SDS011;559;48.628;8.924;2023-10-19T00:10:43;167.15;;;158.15;;
1140;SDS011;559;48.628;8.924;2023-10-19T00:13:13;162.32;;;153.43;;
1140;SDS011;559;48.628;8.924;2023-10-19T00:15:44;163.85;;;154.65;;
1140;SDS011;559;48.628;8.924;2023-10-19T00:18:12;168.80;;;159.30;;
1140;SDS011;559;48.628;8.924;2023-10-19T00:20:49;168.75;;;159.55;;
1140;SDS011;559;48.628;8.924;2023-10-19T00:23:20;165.90;;;156.85;;
1140;SDS011;559;48.628;8.924;2023-10-19T00:25:57;171.30;;;162.23;;
1140;SDS011;559;48.628;8.924;2023-10-19T00:28:25;167.07;;;158.00;;
1140;SDS011;559;48.628;8.924;2023-10-19T00:30:53;166.13;;;157.13;;
1140;SDS011;559;48.628;8.924;2023-10-19T00:33:25;167.82;;;158.82;;
1140;SDS011;559;48.628;8.924;2023-10-19T00:35:53;170.98;;;161.82;;
1140;SDS011;559;48.628;8.924;2023-10-19T00:38:24;171.05;;;161.85;;
1140;SDS011;559;48.628;8.924;2023-10-19T00:41:04;169.02;;;159.55;;
1140;SDS011;559;48.628;8.924;2023-10-19T00:43:33;169.35;;;160.13;;
1140;SDS011;559;48.628;8.924;2023-10-19T00:46:02;170.50;;;161.07;;
1140;SDS011;559;48.628;8.924;2023-10-19T00:48:30;168.95;;;159.77;;
1140;SDS011;559;48.628;8.924;2023-10-19T00:50:58;169.98;;;160.20;;
1140;SDS011;559;48.628;8.924;2023-10-19T00:53:34;161.63;;;152.52;;
1140;SDS011;559;48.628;8.924;2023-10-19T00:56:01;165.18;;;155.82;;
1140;SDS011;559;48.628;8.924;2023-10-19T00:58:31;166.90;;;157.70;;
1140;SDS011;559;48.628;8.924;2023-10-19T01:01:02;170.85;;;161.55;;
1140;SDS011;559;48.628;8.924;2023-10-19T01:03:31;166.38;;;157.07;;
1140;SDS011;559;48.628;8.924;2023-10-19T01:06:01;171.90;;;162.77;;
1140;SDS011;559;48.628;8.924;2023-10-19T01:08:35;177.02;;;167.57;;
1140;SDS011;559;48.628;8.924;2023-10-19T01:11:06;172.90;;;163.60;;
1140;SDS011;559;48.628;8.924;2023-10-19T01:13:37;169.23;;;159.30;;
1140;SDS011;559;48.628;8.924;2023-10-19T01:16:03;174.95;;;165.45;;
1140;SDS011;559;48.628;8.924;2023-10-19T01:18:30;172.23;;;162.50;;
1140;SDS011;559;48.628;8.924;2023-10-19T01:20:58;170.27;;;160.77;;
1140;SDS011;559;48.628;8.924;2023-10-19T01:23:29;174.23;;;164.20;;
1140;SDS011;559;48.628;8.924;2023-10-19T01:25:57;181.50;;;171.50;;
1140;SDS011;559;48.628;8.924;2023-10-19T01:28:33;167.50;;;157.90;;
1140;SDS011;559;48.628;8.924;2023-10-19T01:31:14;173.38;;;163.75;;
1140;SDS011;559;48.628;8.924;2023-10-19T01:33:42;165.95;;;156.55;;
1140;SDS011;559;48.628;8.924;2023-10-19T01:36:10;165.70;;;156.30;;
1140;SDS011;559;48.628;8.924;2023-10-19T01:38:38;159.20;;;149.80;;
1140;SDS011;559;48.628;8.924;2023-10-19T01:41:04;165.23;;;155.55;;
1140;SDS011;559;48.628;8.924;2023-10-19T01:43:38;158.80;;;149.35;;
1140;SDS011;559;48.628;8.924;2023-10-19T01:46:05;168.30;;;158.32;;
1140;SDS011;559;48.628;8.924;2023-10-19T01:48:36;155.27;;;145.88;;
1140;SDS011;559;48.628;8.924;2023-10-19T01:51:04;157.70;;;147.90;;
1140;SDS011;559;48.628;8.924;2023-10-19T01:53:30;164.32;;;154.63;;
1140;SDS011;559;48.628;8.924;2023-10-19T01:55:58;157.18;;;147.68;;
1140;SDS011;559;48.628;8.924;2023-10-19T01:58:23;157.13;;;147.63;;
1140;SDS011;559;48.628;8.924;2023-10-19T02:00:51;167.60;;;157.80;;
1140;SDS011;559;48.628;8.924;2023-10-19T02:03:19;166.05;;;156.40;;
1140;SDS011;559;48.628;8.924;2023-10-19T02:05:48;158.80;;;149.23;;
1140;SDS011;559;48.628;8.924;2023-10-19T02:08:15;158.77;;;149.48;;
1140;SDS011;559;48.628;8.924;2023-10-19T02:10:46;162.40;;;153.00;;
1140;SDS011;559;48.628;8.924;2023-10-19T02:13:13;163.00;;;153.60;;
1140;SDS011;559;48.628;8.924;2023-10-19T02:15:42;167.88;;;158.02;;
1140;SDS011;559;48.628;8.924;2023-10-19T02:18:07;157.60;;;148.50;;
1140;SDS011;559;48.628;8.924;2023-10-19T02:20:35;152.60;;;143.48;;
1140;SDS011;559;48.628;8.924;2023-10-19T02:23:05;152.00;;;143.00;;
1140;SDS011;559;48.628;8.924;2023-10-19T02:25:32;152.73;;;143.70;;
1140;SDS011;559;48.628;8.924;2023-10-19T02:28:02;154.13;;;145.20;;
1140;SDS011;559;48.628;8.924;2023-10-19T02:30:33;160.70;;;151.70;;
1140;SDS011;559;48.628;8.924;2023-10-19T02:32:59;155.15;;;146.15;;
1140;SDS011;559;48.628;8.924;2023-10-19T02:35:25;150.27;;;141.38;;
1140;SDS011;559;48.628;8.924;2023-10-19T02:37:52;146.02;;;137.45;;
1140;SDS011;559;48.628;8.924;2023-10-19T02:40:19;144.73;;;136.32;;
1140;SDS011;559;48.628;8.924;2023-10-19T02:42:44;151.73;;;143.00;;
1140;SDS011;559;48.628;8.924;2023-10-19T02:45:13;150.15;;;141.55;;
1140;SDS011;559;48.628;8.924;2023-10-19T02:47:42;152.95;;;144.40;;
1140;SDS011;559;48.628;8.924;2023-10-19T02:50:09;146.40;;;137.90;;
1140;SDS011;559;48.628;8.924;2023-10-19T02:52:38;146.68;;;138.07;;
1140;SDS011;559;48.628;8.924;2023-10-19T02:55:07;152.85;;;143.95;;
1140;SDS011;559;48.628;8.924;2023-10-19T02:57:35;141.98;;;133.38;;
1140;SDS011;559;48.628;8.924;2023-10-19T03:00:01;146.33;;;137.53;;
1140;SDS011;559;48.628;8.924;2023-10-19T03:02:33;150.68;;;141.95;;
1140;SDS011;559;48.628;8.924;2023-10-19T03:05:03;155.85;;;146.95;;
1140;SDS011;559;48.628;8.924;2023-10-19T03:07:37;147.35;;;138.45;;
1140;SDS011;559;48.628;8.924;2023-10-19T03:10:04;148.15;;;139.35;;
1140;SDS011;559;48.628;8.924;2023-10-19T03:12:32;151.35;;;142.25;;
1140;SDS011;559;48.628;8.924;2023-10-19T03:14:58;148.97;;;140.17;;
1140;SDS011;559;48.628;8.924;2023-10-19T03:17:25;147.13;;;138.55;;
1140;SDS011;559;48.628;8.924;2023-10-19T03:19:51;145.35;;;136.55;;
1140;SDS011;559;48.628;8.924;2023-10-19T03:22:19;147.10;;;137.43;;
1140;SDS011;559;48.628;8.924;2023-10-19T03:24:45;153.10;;;144.30;;
1140;SDS011;559;48.628;8.924;2023-10-19T03:27:12;150.65;;;141.85;;
1140;SDS011;559;48.628;8.924;2023-10-19T03:29:41;151.48;;;142.65;;
1140;SDS011;559;48.628;8.924;2023-10-19T03:32:11;151.15;;;142.25;;
1140;SDS011;559;48.628;8.924;2023-10-19T03:34:38;163.18;;;153.70;;
1140;SDS011;559;48.628;8.924;2023-10-19T03:37:08;149.82;;;141.13;;
1140;SDS011;559;48.628;8.924;2023-10-19T03:39:38;145.68;;;136.73;;
1140;SDS011;559;48.628;8.924;2023-10-19T03:42:05;152.43;;;143.20;;
1140;SDS011;559;48.628;8.924;2023-10-19T03:44:33;148.80;;;140.10;;
1140;SDS011;559;48.628;8.924;2023-10-19T03:47:09;146.40;;;137.80;;
1140;SDS011;559;48.628;8.924;2023-10-19T03:49:40;145.88;;;137.27;;
1140;SDS011;559;48.628;8.924;2023-10-19T03:52:07;142.75;;;134.25;;
1140;SDS011;559;48.628;8.924;2023-10-19T03:54:47;141.75;;;133.30;;
1140;SDS011;559;48.628;8.924;2023-10-19T03:57:15;142.07;;;133.68;;
1140;SDS011;559;48.628;8.924;2023-10-19T03:59:47;137.38;;;129.00;;
1140;SDS011;559;48.628;8.924;2023-10-19T04:02:17;124.70;;;116.65;;
1140;SDS011;559;48.628;8.924;2023-10-19T04:04:45;128.18;;;119.45;;
1140;SDS011;559;48.628;8.924;2023-10-19T04:07:13;128.30;;;120.03;;
1140;SDS011;559;48.628;8.924;2023-10-19T04:09:45;128.45;;;120.10;;
1140;SDS011;559;48.628;8.924;2023-10-19T04:12:26;125.72;;;117.53;;
1140;SDS011;559;48.628;8.924;2023-10-19T04:14:55;125.28;;;116.88;;
1140;SDS011;559;48.628;8.924;2023-10-19T04:17:22;133.25;;;124.95;;
1140;SDS011;559;48.628;8.924;2023-10-19T04:19:49;136.95;;;128.35;;
1140;SDS011;559;48.628;8.924;2023-10-19T04:22:16;138.13;;;129.23;;
1140;SDS011;559;48.628;8.924;2023-10-19T04:24:48;146.82;;;138.13;;
1140;SDS011;559;48.628;8.924;2023-10-19T04:27:14;135.20;;;127.07;;
1140;SDS011;559;48.628;8.924;2023-10-19T04:29:42;141.45;;;133.05;;
1140;SDS011;559;48.628;8.924;2023-10-19T04:32:10;144.60;;;136.00;;
1140;SDS011;559;48.628;8.924;2023-10-19T04:34:39;142.80;;;134.50;;
1140;SDS011;559;48.628;8.924;2023-10-19T04:37:05;151.10;;;142.40;;
1140;SDS011;559;48.628;8.924;2023-10-19T04:39:33;149.95;;;141.35;;
1140;SDS011;559;48.628;8.924;2023-10-19T04:42:01;142.90;;;134.50;;
1140;SDS011;559;48.628;8.924;2023-10-19T04:44:27;138.68;;;130.57;;
1140;SDS011;559;48.628;8.924;2023-10-19T04:46:57;141.70;;;133.23;;
1140;SDS011;559;48.628;8.924;2023-10-19T04:49:23;146.80;;;138.20;;
1140;SDS011;559;48.628;8.924;2023-10-19T04:51:50;149.13;;;140.57;;
1140;SDS011;559;48.628;8.924;2023-10-19T04:54:16;140.85;;;132.25;;
1140;SDS011;559;48.628;8.924;2023-10-19T04:56:43;146.88;;;138.18;;
1140;SDS011;559;48.628;8.924;2023-10-19T04:59:09;147.30;;;138.60;;
1140;SDS011;559;48.628;8.924;2023-10-19T05:01:36;170.45;;;161.55;;
1140;SDS011;559;48.628;8.924;2023-10-19T05:04:04;154.43;;;145.82;;
1140;SDS011;559;48.628;8.924;2023-10-19T05:06:30;162.10;;;153.40;;
1140;SDS011;559;48.628;8.924;2023-10-19T05:08:57;174.70;;;165.65;;
1140;SDS011;559;48.628;8.924;2023-10-19T05:11:23;161.13;;;152.32;;
1140;SDS011;559;48.628;8.924;2023-10-19T05:13:50;170.43;;;161.35;;
1140;SDS011;559;48.628;8.924;2023-10-19T05:16:16;143.00;;;134.60;;
1140;SDS011;559;48.628;8.924;2023-10-19T05:18:42;137.23;;;129.07;;
1140;SDS011;559;48.628;8.924;2023-10-19T05:21:10;144.63;;;136.13;;
1140;SDS011;559;48.628;8.924;2023-10-19T05:23:37;142.43;;;134.25;;
1140;SDS011;559;48.628;8.924;2023-10-19T05:26:04;154.65;;;146.25;;
1140;SDS011;559;48.628;8.924;2023-10-19T05:28:32;151.38;;;143.07;;
1140;SDS011;559;48.628;8.924;2023-10-19T05:30:58;151.23;;;142.77;;
1140;SDS011;559;48.628;8.924;2023-10-19T05:33:26;158.68;;;149.98;;
1140;SDS011;559;48.628;8.924;2023-10-19T05:35:54;152.73;;;144.25;;
1140;SDS011;559;48.628;8.924;2023-10-19T05:38:22;152.13;;;143.82;;
1140;SDS011;559;48.628;8.924;2023-10-19T05:40:49;152.13;;;143.82;;
1140;SDS011;559;48.628;8.924;2023-10-19T05:43:17;153.18;;;145.07;;
1140;SDS011;559;48.628;8.924;2023-10-19T05:45:43;155.52;;;147.02;;
1140;SDS011;559;48.628;8.924;2023-10-19T05:48:15;144.07;;;136.18;;
1140;SDS011;559;48.628;8.924;2023-10-19T05:50:41;150.80;;;142.90;;
1140;SDS011;559;48.628;8.924;2023-10-19T05:53:08;145.23;;;137.27;;
1140;SDS011;559;48.628;8.924;2023-10-19T05:55:36;134.93;;;127.43;;
1140;SDS011;559;48.628;8.924;2023-10-19T05:58:04;135.90;;;128.13;;
1140;SDS011;559;48.628;8.924;2023-10-19T06:00:31;121.05;;;113.88;;
1140;SDS011;559;48.628;8.924;2023-10-19T06:02:57;117.10;;;109.70;;
1140;SDS011;559;48.628;8.924;2023-10-19T06:05:24;119.70;;;112.40;;
1140;SDS011;559;48.628;8.924;2023-10-19T06:07:51;118.55;;;111.35;;
1140;SDS011;559;48.628;8.924;2023-10-19T06:10:18;116.78;;;109.60;;
1140;SDS011;559;48.628;8.924;2023-10-19T06:12:47;119.80;;;112.40;;
1140;SDS011;559;48.628;8.924;2023-10-19T06:15:15;117.15;;;109.95;;
1140;SDS011;559;48.628;8.924;2023-10-19T06:17:42;118.93;;;111.63;;
1140;SDS011;559;48.628;8.924;2023-10-19T06:20:11;128.27;;;120.47;;
1140;SDS011;559;48.628;8.924;2023-10-19T06:22:45;119.90;;;112.50;;
1140;SDS011;559;48.628;8.924;2023-10-19T06:25:15;117.28;;;109.97;;
1140;SDS011;559;48.628;8.924;2023-10-19T06:27:42;118.85;;;111.60;;
1140;SDS011;559;48.628;8.924;2023-10-19T06:30:11;120.72;;;113.18;;
1140;SDS011;559;48.628;8.924;2023-10-19T06:32:42;112.33;;;105.03;;
1140;SDS011;559;48.628;8.924;2023-10-19T06:35:10;118.40;;;111.10;;
1140;SDS011;559;48.628;8.924;2023-10-19T06:37:37;112.60;;;105.50;;
1140;SDS011;559;48.628;8.924;2023-10-19T06:40:04;113.18;;;106.00;;
1140;SDS011;559;48.628;8.924;2023-10-19T06:42:32;118.50;;;111.22;;
1140;SDS011;559;48.628;8.924;2023-10-19T06:45:00;114.15;;;106.82;;
1140;SDS011;559;48.628;8.924;2023-10-19T06:47:28;111.77;;;104.63;;
1140;SDS011;559;48.628;8.924;2023-10-19T06:49:55;109.63;;;102.55;;
1140;SDS011;559;48.628;8.924;2023-10-19T06:52:22;111.05;;;103.75;;
1140;SDS011;559;48.628;8.924;2023-10-19T06:54:48;111.30;;;104.00;;
1140;SDS011;559;48.628;8.924;2023-10-19T06:57:15;112.72;;;105.32;;
1140;SDS011;559;48.628;8.924;2023-10-19T06:59:41;109.97;;;102.55;;
1140;SDS011;559;48.628;8.924;2023-10-19T07:02:08;107.03;;;99.82;;
1140;SDS011;559;48.628;8.924;2023-10-19T07:04:39;115.23;;;108.07;;
1140;SDS011;559;48.628;8.924;2023-10-19T07:07:05;126.43;;;118.93;;
1140;SDS011;559;48.628;8.924;2023-10-19T07:09:34;118.18;;;110.68;;
1140;SDS011;559;48.628;8.924;2023-10-19T07:12:01;120.70;;;113.33;;
1140;SDS011;559;48.628;8.924;2023-10-19T07:14:28;114.43;;;107.30;;
1140;SDS011;559;48.628;8.924;2023-10-19T07:16:55;122.37;;;114.67;;
1140;SDS011;559;48.628;8.924;2023-10-19T07:19:22;121.57;;;113.93;;
1140;SDS011;559;48.628;8.924;2023-10-19T07:21:49;115.50;;;107.72;;
1140;SDS011;559;48.628;8.924;2023-10-19T07:24:22;115.23;;;107.40;;
1140;SDS011;559;48.628;8.924;2023-10-19T07:26:49;110.07;;;103.07;;
1140;SDS011;559;48.628;8.924;2023-10-19T07:29:29;109.70;;;102.50;;
1140;SDS011;559;48.628;8.924;2023-10-19T07:31:57;108.60;;;101.30;;
1140;SDS011;559;48.628;8.924;2023-10-19T07:34:24;106.47;;;99.37;;
1140;SDS011;559;48.628;8.924;2023-10-19T07:36:54;108.97;;;101.97;;
1140;SDS011;559;48.628;8.924;2023-10-19T07:39:24;110.93;;;104.00;;
1140;SDS011;559;48.628;8.924;2023-10-19T07:41:51;113.80;;;106.50;;
1140;SDS011;559;48.628;8.924;2023-10-19T07:44:18;115.07;;;107.83;;
1140;SDS011;559;48.628;8.924;2023-10-19T07:46:44;110.80;;;103.95;;
1140;SDS011;559;48.628;8.924;2023-10-19T07:49:11;106.20;;;99.43;;
1140;SDS011;559;48.628;8.924;2023-10-19T07:51:40;110.65;;;103.85;;
1140;SDS011;559;48.628;8.924;2023-10-19T07:54:10;110.20;;;103.40;;
1140;SDS011;559;48.628;8.924;2023-10-19T07:56:37;111.83;;;105.03;;
1140;SDS011;559;48.628;8.924;2023-10-19T07:59:04;108.07;;;101.17;;
1140;SDS011;559;48.628;8.924;2023-10-19T08:01:32;113.37;;;106.67;;
1140;SDS011;559;48.628;8.924;2023-10-19T08:03:58;111.37;;;104.57;;
1140;SDS011;559;48.628;8.924;2023-10-19T08:06:25;101.30;;;94.80;;
1140;SDS011;559;48.628;8.924;2023-10-19T08:08:52;100.75;;;93.93;;
1140;SDS011;559;48.628;8.924;2023-10-19T08:11:21;97.90;;;91.30;;
1140;SDS011;559;48.628;8.924;2023-10-19T08:13:48;101.57;;;94.77;;
1140;SDS011;559;48.628;8.924;2023-10-19T08:16:14;103.17;;;96.37;;
1140;SDS011;559;48.628;8.924;2023-10-19T08:18:41;98.00;;;91.43;;
1140;SDS011;559;48.628;8.924;2023-10-19T08:21:08;93.63;;;87.37;;
1140;SDS011;559;48.628;8.924;2023-10-19T08:23:34;89.13;;;82.93;;
1140;SDS011;559;48.628;8.924;2023-10-19T08:26:02;92.47;;;86.10;;
1140;SDS011;559;48.628;8.924;2023-10-19T08:28:32;90.77;;;84.57;;
1140;SDS011;559;48.628;8.924;2023-10-19T08:30:58;89.90;;;84.10;;
1140;SDS011;559;48.628;8.924;2023-10-19T08:33:26;89.80;;;83.90;;
1140;SDS011;559;48.628;8.924;2023-10-19T08:35:54;87.20;;;81.30;;
1140;SDS011;559;48.628;8.924;2023-10-19T08:38:21;88.50;;;82.70;;
1140;SDS011;559;48.628;8.924;2023-10-19T08:40:48;89.73;;;83.73;;
1140;SDS011;559;48.628;8.924;2023-10-19T08:43:15;90.23;;;84.50;;
1140;SDS011;559;48.628;8.924;2023-10-19T08:45:45;88.63;;;82.83;;
1140;SDS011;559;48.628;8.924;2023-10-19T08:48:11;83.27;;;77.57;;
1140;SDS011;559;48.628;8.924;2023-10-19T08:50:39;80.10;;;74.80;;
1140;SDS011;559;48.628;8.924;2023-10-19T08:53:06;76.90;;;71.67;;
1140;SDS011;559;48.628;8.924;2023-10-19T08:55:34;82.30;;;76.80;;
1140;SDS011;559;48.628;8.924;2023-10-19T08:58:01;81.30;;;75.70;;
1140;SDS011;559;48.628;8.924;2023-10-19T09:00:38;83.37;;;77.67;;
1140;SDS011;559;48.628;8.924;2023-10-19T09:03:10;85.30;;;79.60;;
1140;SDS011;559;48.628;8.924;2023-10-19T09:05:38;83.80;;;78.20;;
1140;SDS011;559;48.628;8.924;2023-10-19T09:08:06;81.40;;;76.00;;
1140;SDS011;559;48.628;8.924;2023-10-19T09:10:35;78.47;;;72.93;;
1140;SDS011;559;48.628;8.924;2023-10-19T09:13:02;82.20;;;76.40;;
1140;SDS011;559;48.628;8.924;2023-10-19T09:15:30;78.93;;;73.63;;
1140;SDS011;559;48.628;8.924;2023-10-19T09:17:57;77.17;;;71.97;;
1140;SDS011;559;48.628;8.924;2023-10-19T09:20:25;76.13;;;70.93;;
1140;SDS011;559;48.628;8.924;2023-10-19T09:22:53;75.00;;;69.70;;
1140;SDS011;559;48.628;8.924;2023-10-19T09:25:20;72.10;;;67.10;;
1140;SDS011;559;48.628;8.924;2023-10-19T09:27:47;72.47;;;66.57;;
1140;SDS011;559;48.628;8.924;2023-10-19T09:30:15;75.87;;;70.70;;
1140;SDS011;559;48.628;8.924;2023-10-19T09:32:45;74.80;;;69.80;;
1140;SDS011;559;48.628;8.924;2023-10-19T09:35:13;67.13;;;62.23;;
1140;SDS011;559;48.628;8.924;2023-10-19T09:37:42;66.70;;;62.00;;
1140;SDS011;559;48.628;8.924;2023-10-19T09:40:09;70.10;;;65.20;;
1140;SDS011;559;48.628;8.924;2023-10-19T09:42:37;74.00;;;69.10;;
1140;SDS011;559;48.628;8.924;2023-10-19T09:45:11;74.13;;;69.23;;
1140;SDS011;559;48.628;8.924;2023-10-19T09:47:38;74.10;;;69.10;;
1140;SDS011;559;48.628;8.924;2023-10-19T09:50:07;80.37;;;74.90;;
1140;SDS011;559;48.628;8.924;2023-10-19T09:52:36;78.83;;;73.63;;
1140;SDS011;559;48.628;8.924;2023-10-19T09:55:06;76.40;;;71.10;;
1140;SDS011;559;48.628;8.924;2023-10-19T09:57:36;79.37;;;74.07;;
1140;SDS011;559;48.628;8.924;2023-10-19T10:00:06;80.80;;;75.20;;
1140;SDS011;559;48.628;8.924;2023-10-19T10:02:38;77.60;;;72.30;;
1140;SDS011;559;48.628;8.924;2023-10-19T10:05:06;80.20;;;74.63;;
1140;SDS011;559;48.628;8.924;2023-10-19T10:11:12;82.60;;;77.00;;
1140;SDS011;559;48.628;8.924;2023-10-19T10:13:43;88.30;;;82.80;;
1140;SDS011;559;48.628;8.924;2023-10-19T10:16:12;83.20;;;77.70;;
1140;SDS011;559;48.628;8.924;2023-10-19T10:18:40;88.63;;;83.00;;
1140;SDS011;559;48.628;8.924;2023-10-19T10:21:07;85.93;;;80.53;;
1140;SDS011;559;48.628;8.924;2023-10-19T10:23:40;82.93;;;77.57;;
1140;SDS011;559;48.628;8.924;2023-10-19T10:26:09;75.60;;;70.50;;
1140;SDS011;559;48.628;8.924;2023-10-19T10:28:36;76.30;;;71.00;;
1140;SDS011;559;48.628;8.924;2023-10-19T10:31:07;77.93;;;72.83;;
1140;SDS011;559;48.628;8.924;2023-10-19T10:33:45;81.97;;;76.80;;
1140;SDS011;559;48.628;8.924;2023-10-19T10:36:13;77.60;;;72.20;;
1140;SDS011;559;48.628;8.924;2023-10-19T10:38:42;79.00;;;73.67;;
1140;SDS011;559;48.628;8.924;2023-10-19T10:41:10;74.40;;;69.23;;
1140;SDS011;559;48.628;8.924;2023-10-19T10:43:49;80.33;;;74.83;;
1140;SDS011;559;48.628;8.924;2023-10-19T10:46:20;77.77;;;72.17;;
1140;SDS011;559;48.628;8.924;2023-10-19T10:48:47;78.67;;;73.17;;
1140;SDS011;559;48.628;8.924;2023-10-19T10:51:14;84.33;;;78.23;;
1140;SDS011;559;48.628;8.924;2023-10-19T10:53:44;84.90;;;79.00;;
1140;SDS011;559;48.628;8.924;2023-10-19T10:56:15;82.70;;;76.87;;
1140;SDS011;559;48.628;8.924;2023-10-19T10:58:58;87.23;;;81.33;;
1140;SDS011;559;48.628;8.924;2023-10-19T11:01:38;90.67;;;84.27;;
1140;SDS011;559;48.628;8.924;2023-10-19T11:04:09;91.07;;;84.87;;
1140;SDS011;559;48.628;8.924;2023-10-19T11:06:50;87.20;;;81.00;;
1140;SDS011;559;48.628;8.924;2023-10-19T11:09:20;88.50;;;82.20;;
1140;SDS011;559;48.628;8.924;2023-10-19T11:12:11;89.87;;;83.37;;
1140;SDS011;559;48.628;8.924;2023-10-19T11:15:02;94.87;;;88.47;;
1140;SDS011;559;48.628;8.924;2023-10-19T11:17:43;98.80;;;92.20;;
1140;SDS011;559;48.628;8.924;2023-10-19T11:20:30;99.70;;;93.07;;
1140;SDS011;559;48.628;8.924;2023-10-19T11:23:03;103.90;;;96.90;;
1140;SDS011;559;48.628;8.924;2023-10-19T11:25:30;105.33;;;98.30;;
1140;SDS011;559;48.628;8.924;2023-10-19T11:27:59;104.30;;;97.20;;
1140;SDS011;559;48.628;8.924;2023-10-19T11:30:27;113.50;;;106.30;;
1140;SDS011;559;48.628;8.924;2023-10-19T11:32:54;111.13;;;104.13;;
1140;SDS011;559;48.628;8.924;2023-10-19T11:35:23;116.27;;;109.17;;
1140;SDS011;559;48.628;8.924;2023-10-19T11:37:51;116.13;;;109.13;;
1140;SDS011;559;48.628;8.924;2023-10-19T11:40:19;116.73;;;109.33;;
1140;SDS011;559;48.628;8.924;2023-10-19T11:42:46;120.57;;;113.07;;
1140;SDS011;559;48.628;8.924;2023-10-19T11:45:14;115.80;;;108.70;;
1140;SDS011;559;48.628;8.924;2023-10-19T11:47:42;111.30;;;104.20;;
1140;SDS011;559;48.628;8.924;2023-10-19T11:50:09;106.30;;;99.40;;
1140;SDS011;559;48.628;8.924;2023-10-19T11:52:39;101.00;;;94.40;;
1140;SDS011;559;48.628;8.924;2023-10-19T11:55:06;102.17;;;95.53;;
1140;SDS011;559;48.628;8.924;2023-10-19T11:57:33;106.57;;;99.87;;
1140;SDS011;559;48.628;8.924;2023-10-19T12:00:02;106.30;;;99.30;;
1140;SDS011;559;48.628;8.924;2023-10-19T12:06:10;110.00;;;102.70;;
1140;SDS011;559;48.628;8.924;2023-10-19T12:08:39;110.77;;;103.47;;
1140;SDS011;559;48.628;8.924;2023-10-19T12:11:11;109.20;;;102.00;;
1140;SDS011;559;48.628;8.924;2023-10-19T12:13:40;114.43;;;107.13;;
1140;SDS011;559;48.628;8.924;2023-10-19T12:16:08;111.70;;;104.50;;
1140;SDS011;559;48.628;8.924;2023-10-19T12:18:38;116.53;;;109.07;;
1140;SDS011;559;48.628;8.924;2023-10-19T12:21:07;119.90;;;112.30;;
1140;SDS011;559;48.628;8.924;2023-10-19T12:23:38;116.37;;;109.07;;
1140;SDS011;559;48.628;8.924;2023-10-19T12:26:05;119.63;;;111.73;;
1140;SDS011;559;48.628;8.924;2023-10-19T12:28:36;120.30;;;112.50;;
1140;SDS011;559;48.628;8.924;2023-10-19T12:31:03;126.80;;;118.97;;
1140;SDS011;559;48.628;8.924;2023-10-19T12:33:30;119.20;;;111.70;;
1140;SDS011;559;48.628;8.924;2023-10-19T12:35:58;110.17;;;102.87;;
1140;SDS011;559;48.628;8.924;2023-10-19T12:38:24;107.97;;;100.97;;
1140;SDS011;559;48.628;8.924;2023-10-19T12:40:52;107.40;;;100.27;;
1140;SDS011;559;48.628;8.924;2023-10-19T12:43:19;112.50;;;105.20;;
1140;SDS011;559;48.628;8.924;2023-10-19T12:45:47;108.70;;;101.50;;
1140;SDS011;559;48.628;8.924;2023-10-19T12:48:18;116.33;;;109.10;;
1140;SDS011;559;48.628;8.924;2023-10-19T12:50:45;111.13;;;103.93;;
1140;SDS011;559;48.628;8.924;2023-10-19T12:53:14;109.30;;;102.20;;
1140;SDS011;559;48.628;8.924;2023-10-19T12:55:40;111.07;;;103.73;;
1140;SDS011;559;48.628;8.924;2023-10-19T12:58:08;114.07;;;106.60;;
1140;SDS011;559;48.628;8.924;2023-10-19T13:00:36;117.60;;;110.10;;
1140;SDS011;559;48.628;8.924;2023-10-19T13:03:06;111.67;;;104.07;;
1140;SDS011;559;48.628;8.924;2023-10-19T13:05:33;107.47;;;100.27;;
1140;SDS011;559;48.628;8.924;2023-10-19T13:08:00;104.87;;;97.77;;
1140;SDS011;559;48.628;8.924;2023-10-19T13:10:31;103.60;;;96.60;;
1140;SDS011;559;48.628;8.924;2023-10-19T13:13:01;105.20;;;98.10;;
1140;SDS011;559;48.628;8.924;2023-10-19T13:15:29;108.00;;;101.00;;
1140;SDS011;559;48.628;8.924;2023-10-19T13:17:57;109.83;;;102.80;;
1140;SDS011;559;48.628;8.924;2023-10-19T13:20:25;106.53;;;99.37;;
1140;SDS011;559;48.628;8.924;2023-10-19T13:22:51;110.07;;;102.77;;
1140;SDS011;559;48.628;8.924;2023-10-19T13:25:18;106.30;;;99.30;;
1140;SDS011;559;48.628;8.924;2023-10-19T13:27:55;107.57;;;100.67;;
1140;SDS011;559;48.628;8.924;2023-10-19T13:30:21;105.40;;;98.60;;
1140;SDS011;559;48.628;8.924;2023-10-19T13:32:48;104.23;;;97.57;;
1140;SDS011;559;48.628;8.924;2023-10-19T13:35:15;108.23;;;101.33;;
1140;SDS011;559;48.628;8.924;2023-10-19T13:37:42;105.60;;;98.80;;
1140;SDS011;559;48.628;8.924;2023-10-19T13:40:09;108.77;;;101.90;;
1140;SDS011;559;48.628;8.924;2023-10-19T13:42:36;104.23;;;97.37;;
1140;SDS011;559;48.628;8.924;2023-10-19T13:45:05;107.00;;;100.00;;
1140;SDS011;559;48.628;8.924;2023-10-19T13:47:36;107.47;;;100.47;;
1140;SDS011;559;48.628;8.924;2023-10-19T13:50:02;111.10;;;103.80;;
1140;SDS011;559;48.628;8.924;2023-10-19T13:52:32;111.57;;;104.37;;
1140;SDS011;559;48.628;8.924;2023-10-19T13:54:59;110.80;;;103.80;;
1140;SDS011;559;48.628;8.924;2023-10-19T13:57:26;119.90;;;112.40;;
1140;SDS011;559;48.628;8.924;2023-10-19T13:59:52;122.27;;;114.47;;
1140;SDS011;559;48.628;8.924;2023-10-19T14:02:20;129.33;;;121.53;;
1140;SDS011;559;48.628;8.924;2023-10-19T14:04:47;124.17;;;116.57;;
1140;SDS011;559;48.628;8.924;2023-10-19T14:07:13;119.23;;;111.83;;
1140;SDS011;559;48.628;8.924;2023-10-19T14:09:41;122.37;;;114.97;;
1140;SDS011;559;48.628;8.924;2023-10-19T14:12:08;132.43;;;124.33;;
1140;SDS011;559;48.628;8.924;2023-10-19T14:14:35;122.20;;;114.30;;
1140;SDS011;559;48.628;8.924;2023-10-19T14:17:01;124.50;;;116.80;;
1140;SDS011;559;48.628;8.924;2023-10-19T14:19:29;119.57;;;112.07;;
1140;SDS011;559;48.628;8.924;2023-10-19T14:21:56;124.37;;;116.97;;
1140;SDS011;559;48.628;8.924;2023-10-19T14:24:23;122.70;;;115.33;;
1140;SDS011;559;48.628;8.924;2023-10-19T14:26:49;117.60;;;110.30;;
1140;SDS011;559;48.628;8.924;2023-10-19T14:29:16;118.50;;;111.17;;
1140;SDS011;559;48.628;8.924;2023-10-19T14:31:43;116.67;;;109.37;;
1140;SDS011;559;48.628;8.924;2023-10-19T14:34:09;119.70;;;112.07;;
1140;SDS011;559;48.628;8.924;2023-10-19T14:36:37;114.10;;;106.80;;
1140;SDS011;559;48.628;8.924;2023-10-19T14:39:03;114.23;;;107.00;;
1140;SDS011;559;48.628;8.924;2023-10-19T14:41:31;116.10;;;108.87;;
1140;SDS011;559;48.628;8.924;2023-10-19T14:43:58;117.80;;;110.40;;
1140;SDS011;559;48.628;8.924;2023-10-19T14:46:26;116.37;;;109.13;;
1140;SDS011;559;48.628;8.924;2023-10-19T14:48:54;116.03;;;108.60;;
1140;SDS011;559;48.628;8.924;2023-10-19T14:51:20;114.57;;;107.27;;
1140;SDS011;559;48.628;8.924;2023-10-19T14:53:48;115.80;;;108.50;;
1140;SDS011;559;48.628;8.924;2023-10-19T14:56:15;123.93;;;116.23;;